Time;durP1;ratioP1;P1;durP2;ratioP2;P2;SDS_P1;SDS_P2;PMS_P1;PMS_P2;Temp;Humidity;BMP_temperature;BMP_pressure;BME280_temperature;BME280_humidity;BME280_pressure;Samples;Min_cycle;Max_cycle;Signal;HPM_P1;HPM_P2
2021/09/05 00:00:45;;;;;;;11.13;10.05;;;;;;;19.38;64.04;100362.72;10414671;28;20710;-64
2021/09/05 00:05:46;;;;;;;10.68;9.57;;;;;;;19.39;64.19;100358.16;10411060;28;20072;-62
2021/09/05 00:10:48;;;;;;;10.93;9.82;;;;;;;19.38;64.10;100351.06;10396387;28;20441;-63
2021/09/05 00:15:49;;;;;;;11.52;9.80;;;;;;;19.32;63.98;100357.19;10394861;28;20045;-64
2021/09/05 00:20:50;;;;;;;12.35;10.48;;;;;;;19.29;64.22;100347.63;10388235;28;20619;-62
2021/09/05 00:25:52;;;;;;;12.73;9.88;;;;;;;19.28;64.11;100354.03;10385732;28;20131;-64
2021/09/05 00:30:53;;;;;;;11.38;10.18;;;;;;;19.21;64.31;100345.78;10393798;28;20049;-63
2021/09/05 00:35:55;;;;;;;11.15;9.57;;;;;;;19.17;64.45;100349.00;10402444;28;20114;-64
2021/09/05 00:40:56;;;;;;;12.00;9.50;;;;;;;19.13;64.40;100345.00;10394836;28;20052;-62
2021/09/05 00:45:57;;;;;;;11.27;10.18;;;;;;;19.02;64.80;100352.47;10381616;28;20124;-62
2021/09/05 00:50:59;;;;;;;14.13;11.40;;;;;;;18.95;64.83;100345.28;10384409;28;20379;-62
2021/09/05 00:56:01;;;;;;;11.43;9.73;;;;;;;18.95;64.88;100345.28;10381541;28;20080;-64
2021/09/05 01:01:02;;;;;;;12.75;10.68;;;;;;;18.87;64.63;100357.78;10392615;28;20128;-64
2021/09/05 01:06:04;;;;;;;11.88;10.70;;;;;;;18.81;65.44;100362.97;10395175;28;20049;-62
2021/09/05 01:11:05;;;;;;;12.27;10.98;;;;;;;18.83;65.49;100363.66;10382762;28;20045;-62
2021/09/05 01:16:22;;;;;;;11.43;10.32;;;;;;;18.72;65.66;100360.34;10379197;28;20520;-62
2021/09/05 01:21:24;;;;;;;11.98;10.30;;;;;;;18.68;65.63;100367.06;10388720;28;20065;-61
2021/09/05 01:26:27;;;;;;;13.32;11.95;;;;;;;18.66;65.91;100363.72;10387666;28;20563;-61
2021/09/05 01:31:55;;;;;;;14.00;11.40;;;;;;;18.62;65.87;100366.94;10393651;28;20304;-61
2021/09/05 01:36:56;;;;;;;14.75;11.68;;;;;;;18.58;65.88;100369.13;10373488;28;20757;-62
2021/09/05 01:41:58;;;;;;;13.70;11.85;;;;;;;18.51;66.16;100377.06;10382839;28;20713;-61
2021/09/05 01:46:59;;;;;;;13.80;11.38;;;;;;;18.43;66.40;100387.03;10383128;28;20502;-63
2021/09/05 01:52:00;;;;;;;13.35;11.95;;;;;;;18.26;66.47;100370.91;10404907;28;20266;-60
2021/09/05 01:57:02;;;;;;;12.52;11.07;;;;;;;18.32;66.93;100389.06;10387161;28;20065;-64
2021/09/05 02:02:04;;;;;;;15.20;11.95;;;;;;;18.31;66.79;100386.53;10382465;28;20127;-61
2021/09/05 02:07:05;;;;;;;14.20;11.93;;;;;;;18.26;66.94;100395.13;10382484;28;20079;-59
2021/09/05 02:12:07;;;;;;;13.23;11.35;;;;;;;18.20;66.88;100401.22;10374125;28;20120;-64
2021/09/05 02:17:09;;;;;;;13.80;11.98;;;;;;;18.16;66.93;100398.00;10374359;28;20051;-61
2021/09/05 02:22:11;;;;;;;13.55;12.15;;;;;;;18.16;67.04;100405.25;10373093;28;20100;-62
2021/09/05 02:27:12;;;;;;;14.02;11.60;;;;;;;18.11;67.15;100397.69;10403055;28;20053;-63
2021/09/05 02:32:14;;;;;;;15.55;13.73;;;;;;;18.04;67.19;100395.84;10385568;28;20602;-64
2021/09/05 02:37:15;;;;;;;14.90;13.23;;;;;;;18.05;67.46;100402.91;10386345;28;20552;-61
2021/09/05 02:42:16;;;;;;;13.77;12.38;;;;;;;17.99;67.40;100410.63;10376373;28;20455;-63
2021/09/05 02:47:18;;;;;;;13.52;11.70;;;;;;;17.94;67.56;100407.63;10387075;28;20060;-63
2021/09/05 02:52:19;;;;;;;14.73;12.75;;;;;;;17.93;67.63;100411.31;10393278;28;20600;-63
2021/09/05 02:57:21;;;;;;;15.18;12.90;;;;;;;17.90;67.49;100408.13;10389355;28;20049;-63
2021/09/05 03:02:22;;;;;;;14.88;12.90;;;;;;;17.82;67.60;100415.16;10392486;28;20119;-62
2021/09/05 03:07:24;;;;;;;15.02;13.40;;;;;;;17.82;67.93;100408.94;10396423;28;20497;-62
2021/09/05 03:12:27;;;;;;;16.00;13.52;;;;;;;17.76;67.99;100405.06;10389049;28;20076;-63
2021/09/05 03:17:30;;;;;;;18.02;13.25;;;;;;;17.71;67.53;100406.56;10389225;28;20115;-64
2021/09/05 03:22:31;;;;;;;16.95;13.75;;;;;;;17.59;68.53;100401.47;10390203;28;20072;-64
2021/09/05 03:27:32;;;;;;;16.42;14.65;;;;;;;17.55;68.39;100408.22;10399510;28;20124;-62
2021/09/05 03:32:34;;;;;;;15.23;13.35;;;;;;;17.52;68.59;100413.94;10392644;28;20087;-63
2021/09/05 03:37:36;;;;;;;16.60;13.38;;;;;;;17.48;68.74;100412.56;10387321;28;20053;-62
2021/09/05 03:42:37;;;;;;;14.75;13.13;;;;;;;17.45;68.61;100410.22;10398551;28;20048;-63
2021/09/05 03:47:38;;;;;;;16.92;12.93;;;;;;;17.46;68.59;100419.97;10406847;28;20135;-61
2021/09/05 03:52:42;;;;;;;18.40;13.90;;;;;;;17.43;68.45;100414.91;10407715;28;20701;-63
2021/09/05 03:57:43;;;;;;;21.13;14.73;;;;;;;17.39;68.40;100422.47;10388896;28;20084;-62
2021/09/05 04:02:45;;;;;;;16.65;13.10;;;;;;;17.38;69.02;100425.31;10397871;28;20099;-63
2021/09/05 04:13:08;;;;;;;16.38;14.18;;;;;;;17.36;68.95;100421.97;10389788;28;20307;-64
2021/09/05 04:18:09;;;;;;;16.70;14.32;;;;;;;17.32;68.91;100418.75;10400726;28;20138;-64
2021/09/05 04:23:11;;;;;;;15.68;13.52;;;;;;;17.26;68.98;100420.25;10401426;28;20128;-62
2021/09/05 04:28:12;;;;;;;16.80;14.70;;;;;;;17.21;69.05;100433.34;10391253;28;20118;-63
2021/09/05 04:33:14;;;;;;;16.60;14.25;;;;;;;17.22;69.35;100432.34;10401019;28;20068;-63
2021/09/05 04:38:15;;;;;;;21.45;14.25;;;;;;;17.21;68.97;100430.66;10387845;28;20095;-62
2021/09/05 04:43:17;;;;;;;16.38;14.35;;;;;;;17.20;69.22;100433.50;10386106;28;20646;-62
2021/09/05 04:48:18;;;;;;;17.45;14.57;;;;;;;17.15;69.07;100434.00;10385245;28;20073;-63
2021/09/05 04:53:20;;;;;;;17.73;14.48;;;;;;;17.17;68.91;100452.66;10389086;28;20108;-65
2021/09/05 04:58:21;;;;;;;19.35;15.02;;;;;;;17.11;69.11;100459.50;10393055;28;20048;-63
2021/09/05 05:03:22;;;;;;;19.02;15.15;;;;;;;17.10;69.24;100468.59;10399961;28;20242;-62
2021/09/05 05:08:44;;;;;;;18.05;14.57;;;;;;;17.06;69.35;100461.84;10393128;28;20053;-62
2021/09/05 05:13:45;;;;;;;16.08;14.02;;;;;;;17.05;69.45;100474.44;10384217;28;20099;-63
2021/09/05 05:18:47;;;;;;;17.95;14.20;;;;;;;17.04;69.17;100479.97;10400427;28;20107;-64
2021/09/05 05:23:48;;;;;;;16.63;13.55;;;;;;;17.06;69.22;100483.38;10402905;28;20099;-63
2021/09/05 05:28:50;;;;;;;16.67;14.68;;;;;;;17.07;68.99;100482.34;10383954;28;20136;-63
2021/09/05 05:33:51;;;;;;;16.45;14.38;;;;;;;17.08;69.13;100498.34;10397377;28;20064;-63
2021/09/05 05:38:53;;;;;;;16.90;15.07;;;;;;;17.07;68.97;100480.53;10382964;28;20120;-65
2021/09/05 05:43:54;;;;;;;22.90;15.00;;;;;;;17.19;68.90;100499.91;10392727;28;20164;-62
2021/09/05 05:48:56;;;;;;;18.25;14.07;;;;;;;17.22;68.39;100499.59;10390948;28;20053;-62
2021/09/05 05:53:57;;;;;;;16.83;14.85;;;;;;;17.29;68.14;100502.47;10399051;28;20431;-63
2021/09/05 05:58:59;;;;;;;14.95;13.32;;;;;;;17.39;67.99;100503.19;10404474;28;20143;-64
2021/09/05 06:04:00;;;;;;;16.42;14.65;;;;;;;17.43;67.70;100498.31;10381656;28;20045;-62
2021/09/05 06:09:02;;;;;;;16.45;13.63;;;;;;;17.61;67.46;100498.22;10381160;28;20137;-64
2021/09/05 06:14:03;;;;;;;16.35;14.65;;;;;;;17.76;66.49;100501.09;10383536;28;20128;-63
2021/09/05 06:19:04;;;;;;;17.77;13.70;;;;;;;17.90;66.21;100503.22;10397404;28;20454;-62
2021/09/05 06:24:06;;;;;;;16.40;14.35;;;;;;;18.08;65.65;100504.94;10396652;28;20465;-63
2021/09/05 06:29:07;;;;;;;16.20;13.40;;;;;;;18.22;65.13;100508.81;10408876;28;20059;-65
2021/09/05 06:34:09;;;;;;;15.13;13.50;;;;;;;18.35;64.89;100512.69;10376518;28;20073;-65
2021/09/05 06:39:10;;;;;;;16.02;12.18;;;;;;;18.53;65.37;100517.06;10378626;28;20094;-64
2021/09/05 06:44:12;;;;;;;14.40;12.77;;;;;;;18.70;63.95;100523.28;10395740;28;20064;-62
2021/09/05 06:49:13;;;;;;;16.38;12.57;;;;;;;18.85;63.59;100518.03;10381362;28;20069;-61
2021/09/05 06:54:14;;;;;;;14.05;12.52;;;;;;;18.98;63.00;100525.66;10380215;28;20041;-60
2021/09/05 06:59:16;;;;;;;16.15;13.00;;;;;;;19.10;62.78;100515.34;10380121;28;20073;-63
2021/09/05 07:04:17;;;;;;;13.85;12.05;;;;;;;19.30;62.02;100522.00;10379077;28;20123;-60
2021/09/05 07:09:19;;;;;;;14.98;12.25;;;;;;;19.45;61.43;100513.19;10394228;28;20045;-64
2021/09/05 07:14:20;;;;;;;13.00;11.70;;;;;;;19.65;61.67;100525.25;10380189;28;20562;-65
2021/09/05 07:19:22;;;;;;;15.32;11.73;;;;;;;19.78;60.33;100527.38;10378948;28;20218;-62
2021/09/05 07:24:23;;;;;;;12.90;10.70;;;;;;;19.96;59.84;100530.66;10379241;28;20138;-63
2021/09/05 07:29:24;;;;;;;14.15;11.48;;;;;;;20.18;59.00;100541.66;10380698;28;20135;-64
2021/09/05 07:34:26;;;;;;;16.17;12.13;;;;;;;20.28;58.05;100542.28;10369702;28;20131;-65
2021/09/05 07:39:27;;;;;;;14.63;11.85;;;;;;;20.35;58.17;100552.38;10378872;28;20103;-61
2021/09/05 07:44:28;;;;;;;12.63;11.32;;;;;;;20.61;57.77;100552.84;10380820;28;20061;-67
2021/09/05 07:49:30;;;;;;;12.38;11.13;;;;;;;20.86;57.39;100557.22;10377702;28;20073;-64
2021/09/05 07:54:32;;;;;;;12.45;10.43;;;;;;;21.04;56.29;100557.69;10391546;28;20092;-63
2021/09/05 07:59:33;;;;;;;15.20;12.30;;;;;;;21.33;55.91;100565.00;10386521;28;20465;-63
2021/09/05 08:04:34;;;;;;;12.23;11.13;;;;;;;21.48;55.53;100559.59;10383735;28;20054;-64
2021/09/05 08:09:36;;;;;;;12.38;10.80;;;;;;;21.74;55.20;100552.88;10394890;28;20053;-62
2021/09/05 08:14:38;;;;;;;13.75;12.18;;;;;;;22.02;54.53;100554.84;10391670;28;20065;-63
2021/09/05 08:19:39;;;;;;;12.45;11.15;;;;;;;22.39;53.10;100566.53;10391722;28;20077;-63
2021/09/05 08:24:41;;;;;;;11.05;9.95;;;;;;;22.57;53.38;100563.34;10390929;28;20107;-65
2021/09/05 08:29:42;;;;;;;13.43;11.40;;;;;;;22.52;53.21;100572.09;10390170;28;20762;-63
2021/09/05 08:34:43;;;;;;;12.60;11.18;;;;;;;23.04;51.23;100572.69;10396426;28;20140;-63
2021/09/05 08:39:45;;;;;;;12.65;10.10;;;;;;;23.40;51.16;100581.75;10391634;28;20565;-65
2021/09/05 08:44:46;;;;;;;10.23;9.10;;;;;;;23.37;51.70;100571.28;10393475;28;20077;-65
2021/09/05 08:49:48;;;;;;;13.02;11.65;;;;;;;23.08;51.84;100578.59;10392892;28;20389;-62
2021/09/05 08:54:50;;;;;;;12.10;10.90;;;;;;;23.59;50.66;100581.00;10391070;28;20077;-62
2021/09/05 08:59:51;;;;;;;14.68;12.48;;;;;;;24.14;49.10;100577.47;10407537;28;20129;-66
2021/09/05 09:04:53;;;;;;;11.50;10.07;;;;;;;24.38;49.12;100569.78;10384512;28;20077;-63
2021/09/05 09:09:59;;;;;;;12.02;10.80;;;;;;;24.83;47.59;100580.94;10393412;28;20049;-67
2021/09/05 09:15:01;;;;;;;11.50;10.18;;;;;;;25.01;46.70;100578.44;10396633;28;20053;-66
2021/09/05 09:20:03;;;;;;;12.23;9.50;;;;;;;25.50;45.81;100578.16;10386417;28;20103;-64
2021/09/05 09:25:08;;;;;;;12.05;10.65;;;;;;;26.00;44.29;100583.00;10382973;28;20410;-64
2021/09/05 09:30:14;;;;;;;11.23;10.13;;;;;;;26.26;44.08;100582.88;10389839;28;20250;-62
2021/09/05 09:35:16;;;;;;;11.82;10.63;;;;;;;26.62;43.21;100577.81;10401914;28;20103;-64
2021/09/05 09:40:24;;;;;;;10.95;9.85;;;;;;;26.78;42.24;100590.94;10407606;28;20103;-65
2021/09/05 09:45:26;;;;;;;10.93;9.82;;;;;;;27.23;41.71;100586.31;10381195;28;20081;-64
2021/09/05 09:50:27;;;;;;;13.45;9.52;;;;;;;27.73;41.07;100575.28;10390288;28;20119;-64
2021/09/05 09:55:29;;;;;;;10.00;9.10;;;;;;;28.11;39.59;100573.34;10388454;28;20065;-66
2021/09/05 10:00:30;;;;;;;10.88;9.23;;;;;;;28.62;38.87;100573.88;10400671;28;20046;-67
2021/09/05 10:05:32;;;;;;;11.02;9.93;;;;;;;28.52;38.84;100569.75;10419003;28;20061;-64
2021/09/05 10:10:34;;;;;;;10.90;9.80;;;;;;;29.49;36.71;100562.19;10396471;28;20069;-65
2021/09/05 10:15:35;;;;;;;9.68;8.73;;;;;;;31.12;34.54;100556.34;10382937;28;20041;-67
2021/09/05 10:20:38;;;;;;;10.65;9.55;;;;;;;35.34;27.15;100562.44;10382953;28;20057;-64
2021/09/05 10:25:39;;;;;;;9.60;8.77;;;;;;;37.21;24.48;100555.28;10384148;28;20502;-66
2021/09/05 10:30:58;;;;;;;8.43;7.65;;;;;;;36.42;24.98;100559.09;10384156;28;20745;-69
2021/09/05 10:36:09;;;;;;;9.77;7.95;;;;;;;34.49;27.91;100557.56;10373201;28;20080;-65
2021/09/05 10:41:15;;;;;;;8.80;8.05;;;;;;;34.36;27.64;100553.38;10382566;28;20139;-68
2021/09/05 10:46:25;;;;;;;8.88;7.97;;;;;;;37.23;24.61;100533.59;10383925;28;20041;-64
2021/09/05 10:51:28;;;;;;;9.13;8.23;;;;;;;40.89;20.34;100535.00;10381617;28;20096;-65
2021/09/05 10:56:32;;;;;;;7.88;7.10;;;;;;;42.27;18.85;100540.38;10366037;28;20221;-67
2021/09/05 11:01:47;;;;;;;8.02;6.93;;;;;;;43.76;16.70;100532.16;10382751;28;20069;-67
2021/09/05 11:06:52;;;;;;;8.35;7.55;;;;;;;45.02;16.36;100533.91;10375835;28;20609;-71
2021/09/05 11:12:10;;;;;;;8.30;7.60;;;;;;;45.27;15.35;100529.09;10384858;28;20410;-68
2021/09/05 11:17:14;;;;;;;7.70;6.90;;;;;;;46.31;14.87;100525.75;10411814;23;20103;-56
2021/09/05 11:22:36;;;;;;;7.35;6.63;;;;;;;47.27;13.72;100525.78;10411895;28;20321;-57
2021/09/05 11:27:47;;;;;;;7.05;6.45;;;;;;;47.27;13.71;100508.88;10412146;28;20061;-57
2021/09/05 11:32:57;;;;;;;6.90;6.30;;;;;;;46.86;13.81;100513.91;10424458;28;20048;-57
2021/09/05 11:37:58;;;;;;;7.05;6.55;;;;;;;47.88;13.00;100515.03;10421356;28;20045;-56
2021/09/05 11:43:00;;;;;;;6.63;6.03;;;;;;;48.45;12.64;100518.19;10409632;28;20064;-57
2021/09/05 11:48:04;;;;;;;6.72;6.13;;;;;;;49.24;11.76;100522.34;10408350;28;20061;-57
2021/09/05 11:53:06;;;;;;;6.13;5.63;;;;;;;49.60;11.27;100507.91;10409387;28;20083;-57
2021/09/05 11:58:08;;;;;;;6.22;5.63;;;;;;;50.28;11.36;100507.88;10418490;28;20041;-56
2021/09/05 12:03:23;;;;;;;5.80;5.38;;;;;;;49.81;10.92;100513.81;10405235;28;20044;-56
2021/09/05 12:08:25;;;;;;;5.40;5.00;;;;;;;49.62;10.94;100513.97;10421693;28;20052;-56
2021/09/05 12:13:26;;;;;;;4.50;4.20;;;;;;;49.43;11.04;100515.72;10405395;28;20069;-57
2021/09/05 12:18:28;;;;;;;5.15;4.00;;;;;;;49.41;10.45;100515.28;10401017;28;20065;-57
2021/09/05 12:23:32;;;;;;;5.30;4.80;;;;;;;49.83;10.60;100508.59;10400873;28;20049;-57
2021/09/05 12:28:34;;;;;;;4.88;4.47;;;;;;;50.02;10.59;100516.09;10406668;28;20171;-58
2021/09/05 12:33:38;;;;;;;5.20;4.57;;;;;;;48.86;11.13;100509.19;10416207;28;20048;-58
2021/09/05 12:38:51;;;;;;;5.47;4.20;;;;;;;48.13;11.88;100513.53;10411828;28;20072;-57
2021/09/05 12:43:55;;;;;;;3.67;3.38;;;;;;;47.14;11.48;100507.34;10414052;28;20092;-58
2021/09/05 12:48:57;;;;;;;3.90;3.60;;;;;;;43.20;14.62;100507.97;10408774;28;20144;-57
2021/09/05 12:54:06;;;;;;;3.53;3.22;;;;;;;40.34;16.69;100503.50;10408237;28;20060;-58
2021/09/05 12:59:08;;;;;;;3.60;3.35;;;;;;;38.71;18.22;100502.00;10410613;28;20080;-58
2021/09/05 13:04:10;;;;;;;4.80;3.58;;;;;;;37.81;18.92;100496.50;10417972;28;20735;-57
2021/09/05 13:09:11;;;;;;;3.95;3.30;;;;;;;37.17;19.88;100495.94;10409546;28;20125;-57
2021/09/05 13:14:12;;;;;;;4.20;3.80;;;;;;;37.00;20.50;100498.41;10421005;28;20166;-57
2021/09/05 13:19:14;;;;;;;3.90;3.60;;;;;;;36.65;19.82;100497.59;10404253;28;20046;-55
2021/09/05 13:24:15;;;;;;;3.28;2.95;;;;;;;35.74;21.74;100499.66;10410163;28;20493;-56
2021/09/05 13:29:17;;;;;;;3.50;3.20;;;;;;;35.41;21.89;100487.41;10422118;28;20141;-55
2021/09/05 13:34:18;;;;;;;3.63;3.33;;;;;;;35.25;22.67;100475.53;10407599;28;20049;-57
2021/09/05 13:39:19;;;;;;;5.65;4.13;;;;;;;34.70;23.22;100484.56;10407430;28;20056;-55
2021/09/05 13:44:21;;;;;;;5.00;4.60;;;;;;;34.58;23.00;100483.22;10416321;28;20533;-55
2021/09/05 13:49:22;;;;;;;4.57;4.25;;;;;;;34.32;23.58;100474.91;10410953;28;20499;-55
2021/09/05 13:54:24;;;;;;;5.25;3.95;;;;;;;34.35;24.04;100468.88;10418062;28;20117;-55
2021/09/05 13:59:25;;;;;;;5.03;4.30;;;;;;;34.00;23.96;100474.09;10407439;28;20060;-56
2021/09/05 14:04:26;;;;;;;4.60;4.20;;;;;;;33.60;24.54;100474.78;10419600;28;20072;-54
2021/09/05 14:09:28;;;;;;;4.47;4.18;;;;;;;33.13;24.69;100468.25;10400452;28;20072;-55
2021/09/05 14:14:29;;;;;;;4.65;3.97;;;;;;;32.85;25.08;100469.50;10415065;28;20719;-55
2021/09/05 14:19:31;;;;;;;3.85;3.55;;;;;;;32.37;26.07;100466.72;10410585;28;20045;-54
2021/09/05 14:24:32;;;;;;;;;;;;;;;32.01;26.36;100472.69;10405062;28;20570;-55
2021/09/05 14:29:40;;;;;;;5.32;4.32;;;;;;;31.57;26.74;100467.28;10405830;28;21375;-55
2021/09/05 14:50:56;;;;;;;4.80;4.25;;;;;;;30.39;28.46;100477.47;10397300;28;20049;-55
2021/09/05 14:55:57;;;;;;;4.85;4.38;;;;;;;30.10;28.75;100469.31;10407977;28;20613;-55
2021/09/05 15:01:18;;;;;;;5.40;4.55;;;;;;;29.96;28.79;100463.28;10435546;28;20476;-54
2021/09/05 15:11:40;;;;;;;6.10;4.53;;;;;;;29.45;30.16;100465.03;10424902;28;20126;-55
2021/09/05 15:16:41;;;;;;;4.70;4.30;;;;;;;29.41;30.08;100466.59;10408163;28;20164;-55
2021/09/05 15:22:11;;;;;;;5.13;4.50;;;;;;;29.25;30.13;100463.56;10429401;28;20055;-55
2021/09/05 15:27:17;;;;;;;4.82;4.43;;;;;;;29.03;30.71;100457.84;10426297;28;20048;-55
2021/09/05 15:32:48;;;;;;;4.70;4.30;;;;;;;28.99;30.25;100464.06;10411489;28;20264;-54
2021/09/05 15:53:52;;;;;;;3.67;3.38;;;;;;;28.52;30.92;100457.50;10415136;28;20042;-54
2021/09/05 15:59:05;;;;;;;7.55;5.30;;;;;;;28.39;30.70;100457.75;10409963;28;20061;-53
2021/09/05 16:20:13;;;;;;;4.90;4.50;;;;;;;27.74;32.03;100473.00;10409984;28;20060;-54
2021/09/05 16:25:15;;;;;;;5.05;4.20;;;;;;;27.75;32.48;100457.47;10424435;28;20080;-54
2021/09/05 16:30:20;;;;;;;4.40;4.00;;;;;;;27.69;32.26;100459.22;10434258;28;20545;-54
2021/09/05 16:40:30;;;;;;;9.45;5.20;;;;;;;27.53;33.15;100471.63;10412893;28;20181;-54
2021/09/05 16:45:33;;;;;;;5.38;4.88;;;;;;;27.39;33.29;100472.88;10413976;28;20049;-55
2021/09/05 16:50:36;;;;;;;4.38;3.97;;;;;;;27.26;33.67;100465.63;10406557;28;20046;-54
2021/09/05 16:55:38;;;;;;;5.45;4.95;;;;;;;27.18;33.20;100480.44;10399285;28;20065;-54
2021/09/05 17:00:39;;;;;;;5.25;4.53;;;;;;;27.03;33.19;100480.00;10406428;28;20475;-54
2021/09/05 17:05:41;;;;;;;5.13;4.63;;;;;;;26.89;33.70;100476.53;10398083;28;20053;-54
2021/09/05 17:10:44;;;;;;;4.78;4.38;;;;;;;26.78;33.86;100480.88;10415006;28;20045;-54
2021/09/05 17:15:46;;;;;;;5.38;4.68;;;;;;;26.69;33.71;100479.50;10418905;28;20136;-54
2021/09/05 17:20:48;;;;;;;5.07;4.38;;;;;;;26.57;34.14;100488.41;10382440;22;20076;-64
2021/09/05 17:25:49;;;;;;;6.23;4.57;;;;;;;26.48;34.57;100481.53;10381634;28;20120;-63
2021/09/05 17:30:51;;;;;;;4.57;4.13;;;;;;;26.37;34.51;100483.09;10360666;28;20129;-63
2021/09/05 17:35:52;;;;;;;5.63;4.18;;;;;;;26.26;34.68;100490.09;10372525;28;20542;-64
2021/09/05 17:40:54;;;;;;;5.60;5.07;;;;;;;26.01;35.35;100491.97;10378279;28;20497;-64
2021/09/05 17:45:55;;;;;;;5.82;5.18;;;;;;;25.93;36.78;100496.59;10387704;28;20128;-64
2021/09/05 17:50:57;;;;;;;6.47;5.50;;;;;;;25.76;38.27;100504.47;10384172;28;20045;-64
2021/09/05 17:55:59;;;;;;;7.30;6.60;;;;;;;25.70;39.56;100515.38;10370640;28;20065;-62
2021/09/05 18:01:00;;;;;;;6.90;6.30;;;;;;;25.56;40.43;100517.34;10367315;28;20077;-64
2021/09/05 18:06:02;;;;;;;6.20;5.65;;;;;;;25.44;41.25;100521.78;10386040;28;20124;-64
2021/09/05 18:11:04;;;;;;;9.65;6.25;;;;;;;25.32;43.09;100527.91;10372357;28;20045;-64
2021/09/05 18:16:05;;;;;;;8.52;5.47;;;;;;;25.27;43.16;100529.59;10372815;28;20073;-63
2021/09/05 18:21:07;;;;;;;8.23;7.43;;;;;;;25.16;44.13;100540.09;10376453;28;20060;-64
2021/09/05 18:26:08;;;;;;;10.68;8.45;;;;;;;25.08;44.68;100553.91;10368556;28;20670;-63
2021/09/05 18:31:11;;;;;;;7.68;7.00;;;;;;;24.98;44.57;100550.78;10378552;28;20092;-63
2021/09/05 18:36:12;;;;;;;7.03;6.17;;;;;;;24.86;45.25;100556.88;10375433;28;20054;-64
2021/09/05 18:41:16;;;;;;;7.63;7.03;;;;;;;24.81;46.60;100561.28;10364319;28;20367;-64
2021/09/05 18:46:17;;;;;;;8.20;7.40;;;;;;;24.67;47.04;100574.88;10378068;28;20533;-64
2021/09/05 18:51:22;;;;;;;8.40;7.57;;;;;;;24.55;47.43;100565.63;10363333;28;20050;-63
2021/09/05 18:56:23;;;;;;;8.05;7.28;;;;;;;24.53;46.42;100575.91;10361232;28;20084;-64
2021/09/05 19:01:25;;;;;;;9.15;8.25;;;;;;;24.41;47.56;100574.81;10366418;28;20057;-64
2021/09/05 19:06:27;;;;;;;9.57;7.90;;;;;;;24.33;48.09;100579.41;10371982;28;20049;-63
2021/09/05 19:11:29;;;;;;;7.90;7.10;;;;;;;24.25;48.15;100586.94;10375223;28;20493;-62
2021/09/05 19:16:30;;;;;;;8.68;7.78;;;;;;;24.16;48.31;100599.88;10359255;28;20068;-63
2021/09/05 19:21:32;;;;;;;8.40;7.40;;;;;;;24.07;48.45;100606.56;10372082;28;20049;-63
2021/09/05 19:26:33;;;;;;;8.25;7.47;;;;;;;23.99;49.00;100600.25;10387152;28;20053;-66
2021/09/05 19:31:35;;;;;;;7.93;7.22;;;;;;;23.89;48.58;100604.38;10377341;28;20092;-63
2021/09/05 19:36:37;;;;;;;7.38;6.68;;;;;;;23.82;48.85;100610.59;10376276;28;20069;-69
2021/09/05 19:41:38;;;;;;;8.20;7.43;;;;;;;23.74;48.39;100612.66;10384086;28;20041;-63
2021/09/05 19:46:40;;;;;;;7.55;6.85;;;;;;;23.68;48.55;100613.47;10379532;28;20124;-63
2021/09/05 19:51:42;;;;;;;8.02;7.22;;;;;;;23.57;48.78;100613.00;10395893;28;20042;-64
2021/09/05 19:56:43;;;;;;;9.15;8.25;;;;;;;23.53;48.98;100630.72;10394193;28;20053;-64
2021/09/05 20:01:45;;;;;;;9.73;8.75;;;;;;;23.47;49.03;100623.38;10388760;28;20053;-63
2021/09/05 20:06:47;;;;;;;8.40;7.50;;;;;;;23.37;49.35;100628.31;10383765;28;20060;-64
2021/09/05 20:11:49;;;;;;;8.73;7.78;;;;;;;23.37;49.41;100628.31;10385083;28;20418;-64
2021/09/05 20:16:50;;;;;;;8.10;7.30;;;;;;;23.30;49.24;100634.53;10370247;28;20725;-64
2021/09/05 20:21:55;;;;;;;8.60;7.80;;;;;;;23.23;49.28;100638.25;10375299;28;20124;-64
2021/09/05 20:26:57;;;;;;;8.00;7.30;;;;;;;23.17;49.45;100639.88;10370425;28;20068;-65
2021/09/05 20:32:00;;;;;;;8.93;8.05;;;;;;;23.07;49.87;100636.63;10376522;28;20049;-63
2021/09/05 20:37:02;;;;;;;9.57;7.97;;;;;;;23.01;49.46;100634.69;10369260;28;20061;-64
2021/09/05 20:42:04;;;;;;;9.02;8.23;;;;;;;22.94;50.26;100646.34;10388052;28;20064;-64
2021/09/05 20:47:06;;;;;;;9.02;8.13;;;;;;;22.86;51.15;100632.91;10369657;28;20594;-62
2021/09/05 20:52:14;;;;;;;9.23;8.38;;;;;;;22.80;52.01;100636.38;10378004;28;20045;-63
2021/09/05 20:57:15;;;;;;;9.98;8.43;;;;;;;22.76;52.32;100638.66;10386887;28;20049;-64
2021/09/05 21:02:17;;;;;;;10.32;8.82;;;;;;;22.67;52.69;100639.84;10374381;28;20054;-63
2021/09/05 21:07:19;;;;;;;10.38;9.38;;;;;;;22.59;52.91;100651.66;10371914;28;20096;-64
2021/09/05 21:12:21;;;;;;;10.80;9.70;;;;;;;22.44;53.44;100636.47;10391885;28;20064;-63
2021/09/05 21:17:22;;;;;;;9.82;8.85;;;;;;;22.36;53.68;100638.25;10369220;28;20522;-62
2021/09/05 21:28:46;;;;;;;12.63;9.63;;;;;;;22.27;53.52;100643.97;10374354;28;20053;-64
2021/09/05 21:33:49;;;;;;;11.45;10.30;;;;;;;22.18;53.85;100662.22;10392861;28;20069;-64
2021/09/05 21:38:50;;;;;;;9.50;8.60;;;;;;;22.02;53.42;100660.53;10392121;28;20046;-63
2021/09/05 21:43:55;;;;;;;10.13;9.15;;;;;;;21.95;53.60;100665.03;10366866;28;20128;-63
2021/09/05 21:48:57;;;;;;;9.23;8.32;;;;;;;21.82;53.65;100652.16;10379332;28;20052;-66
2021/09/05 21:53:58;;;;;;;10.23;8.32;;;;;;;21.83;53.70;100660.09;10380477;28;20049;-62
2021/09/05 21:58:59;;;;;;;10.45;9.45;;;;;;;21.77;53.33;100666.28;10387497;28;20080;-64
2021/09/05 22:04:01;;;;;;;9.95;8.95;;;;;;;21.70;53.02;100668.03;10358238;28;20863;-62
2021/09/05 22:09:03;;;;;;;9.63;8.73;;;;;;;21.64;52.75;100663.38;10375377;28;20073;-64
2021/09/05 22:14:04;;;;;;;9.80;8.80;;;;;;;21.63;52.76;100683.34;10384473;28;20106;-64
2021/09/05 22:19:06;;;;;;;10.23;8.85;;;;;;;21.56;52.50;100668.88;10366323;28;20057;-64
2021/09/05 22:24:08;;;;;;;10.05;9.05;;;;;;;21.54;52.32;100678.03;10371506;28;20069;-64
2021/09/05 22:29:09;;;;;;;9.75;8.85;;;;;;;21.47;52.44;100671.63;10372566;28;20388;-63
2021/09/05 22:34:10;;;;;;;9.20;8.30;;;;;;;21.46;52.41;100672.66;10371300;28;20502;-64
2021/09/05 22:39:12;;;;;;;9.90;8.73;;;;;;;21.37;52.14;100665.66;10356483;28;20065;-62
2021/09/05 22:44:13;;;;;;;10.85;9.80;;;;;;;21.35;52.43;100675.84;10383559;28;20069;-64
2021/09/05 22:49:15;;;;;;;10.63;9.55;;;;;;;21.31;52.21;100682.63;10367087;28;20077;-68
2021/09/05 22:54:16;;;;;;;11.52;9.43;;;;;;;21.21;52.55;100679.34;10384748;28;20080;-64
2021/09/05 22:59:17;;;;;;;10.38;9.38;;;;;;;21.19;52.06;100690.34;10364911;28;20069;-69
2021/09/05 23:04:19;;;;;;;11.85;10.73;;;;;;;21.16;51.73;100688.84;10356910;28;20073;-63
2021/09/05 23:09:20;;;;;;;11.10;9.82;;;;;;;21.16;51.44;100691.53;10370734;28;20066;-63
2021/09/05 23:14:22;;;;;;;10.60;9.43;;;;;;;21.12;51.72;100687.53;10381983;28;20080;-63
2021/09/05 23:19:23;;;;;;;10.18;9.05;;;;;;;21.04;52.00;100687.59;10374941;28;20088;-63
2021/09/05 23:24:24;;;;;;;9.70;8.80;;;;;;;20.99;51.99;100690.03;10385387;28;20049;-63
2021/09/05 23:29:26;;;;;;;9.88;8.88;;;;;;;20.95;52.55;100696.81;10364213;28;20121;-63
2021/09/05 23:34:27;;;;;;;10.75;9.65;;;;;;;20.88;52.60;100693.13;10390197;28;20065;-60
2021/09/05 23:39:29;;;;;;;10.52;9.40;;;;;;;20.76;53.01;100696.28;10378814;28;20454;-63
2021/09/05 23:44:30;;;;;;;12.60;9.48;;;;;;;20.71;52.64;100693.25;10368591;28;20548;-63
2021/09/05 23:49:32;;;;;;;10.75;9.75;;;;;;;20.63;53.35;100690.59;10382559;28;20104;-64
2021/09/05 23:54:34;;;;;;;10.27;9.38;;;;;;;20.63;53.19;100696.81;10371429;28;20077;-63
2021/09/05 23:59:36;;;;;;;10.32;9.38;;;;;;;20.59;53.57;100700.06;10377583;28;20065;-63
